Time;durP1;ratioP1;P1;durP2;ratioP2;P2;SDS_P1;SDS_P2;PMS_P1;PMS_P2;Temp;Humidity;BMP_temperature;BMP_pressure;BME280_temperature;BME280_humidity;BME280_pressure;Samples;Min_cycle;Max_cycle;Signal;HPM_P1;HPM_P2
2024/04/04 00:01:19;;;;;;;0.97;0.30;;;7.10;99.90;;;;;;5069529;28;20235;-68
2024/04/04 00:03:47;;;;;;;0.10;0.10;;;7.10;99.90;;;;;;5069635;28;20210;-68
2024/04/04 00:06:13;;;;;;;0.10;0.10;;;7.00;99.90;;;;;;5069679;28;20170;-68
2024/04/04 00:08:38;;;;;;;0.10;0.10;;;7.00;99.90;;;;;;5069715;28;20248;-67
2024/04/04 00:11:11;;;;;;;0.23;0.23;;;7.00;99.90;;;;;;5069261;28;20256;-67
2024/04/04 00:13:37;;;;;;;0.10;0.10;;;6.90;99.90;;;;;;5069808;28;20217;-68
2024/04/04 00:16:03;;;;;;;0.50;0.50;;;6.80;99.90;;;;;;5069222;28;20209;-67
2024/04/04 00:18:29;;;;;;;0.20;0.20;;;6.80;99.90;;;;;;5068006;28;20975;-68
2024/04/04 00:20:55;;;;;;;0.10;0.10;;;6.70;99.90;;;;;;5068870;28;20214;-68
2024/04/04 00:23:20;;;;;;;0.30;0.30;;;6.60;99.90;;;;;;5069374;28;20303;-68
2024/04/04 00:25:47;;;;;;;0.10;0.10;;;6.60;99.90;;;;;;5072701;28;20585;-68
2024/04/04 00:28:12;;;;;;;0.10;0.10;;;6.70;99.90;;;;;;5071178;28;20202;-68
2024/04/04 00:30:38;;;;;;;0.10;0.10;;;6.60;99.90;;;;;;5072835;28;20197;-67
2024/04/04 00:33:04;;;;;;;0.10;0.10;;;6.50;99.90;;;;;;5081269;28;20265;-68
2024/04/04 00:35:30;;;;;;;0.10;0.10;;;6.40;99.90;;;;;;5073368;28;20264;-68
2024/04/04 00:37:55;;;;;;;0.20;0.20;;;6.30;99.90;;;;;;5072662;28;20203;-68
2024/04/04 00:40:23;;;;;;;0.10;0.10;;;6.30;99.90;;;;;;5072482;28;20182;-68
2024/04/04 00:42:49;;;;;;;0.10;0.10;;;6.20;99.90;;;;;;5072637;28;20703;-68
2024/04/04 00:45:15;;;;;;;0.10;0.10;;;6.30;99.90;;;;;;5065050;28;20190;-67
2024/04/04 00:47:44;;;;;;;0.10;0.10;;;6.20;99.90;;;;;;5071526;28;20203;-67
2024/04/04 00:50:10;;;;;;;0.10;0.10;;;6.20;99.90;;;;;;5072328;28;20675;-68
2024/04/04 00:52:35;;;;;;;0.10;0.10;;;6.10;99.90;;;;;;5072948;28;20268;-68
2024/04/04 00:55:01;;;;;;;0.50;0.50;;;6.10;99.90;;;;;;5080999;28;20197;-68
2024/04/04 00:57:27;;;;;;;0.20;0.20;;;6.10;99.90;;;;;;5072600;28;20218;-68
2024/04/04 00:59:53;;;;;;;0.20;0.20;;;6.10;99.90;;;;;;5072647;28;20186;-68
2024/04/04 01:02:20;;;;;;;0.40;0.40;;;6.10;99.90;;;;;;5079861;28;20194;-68
2024/04/04 01:04:46;;;;;;;0.23;0.23;;;6.10;99.90;;;;;;5072778;28;20541;-68
2024/04/04 01:07:14;;;;;;;0.10;0.10;;;6.20;99.90;;;;;;5072636;28;20197;-68
2024/04/04 01:09:40;;;;;;;0.10;0.10;;;6.10;99.90;;;;;;5072041;28;20186;-67
2024/04/04 01:12:06;;;;;;;0.13;0.13;;;6.10;99.90;;;;;;5072768;28;20684;-68
2024/04/04 01:14:32;;;;;;;0.10;0.10;;;6.00;99.90;;;;;;5072450;28;20237;-67
2024/04/04 01:16:57;;;;;;;0.40;0.33;;;6.00;99.90;;;;;;5071832;28;20237;-68
2024/04/04 01:19:23;;;;;;;0.10;0.10;;;5.90;99.90;;;;;;5071744;28;20186;-67
2024/04/04 01:21:49;;;;;;;0.30;0.30;;;5.90;99.90;;;;;;5080421;28;20568;-68
2024/04/04 01:24:14;;;;;;;0.20;0.20;;;6.00;99.90;;;;;;5071160;28;20197;-68
2024/04/04 01:26:40;;;;;;;0.10;0.10;;;5.90;99.90;;;;;;5071026;28;20673;-68
2024/04/04 01:29:05;;;;;;;0.10;0.10;;;5.90;99.90;;;;;;5073912;28;20186;-68
2024/04/04 01:31:31;;;;;;;0.10;0.10;;;5.90;99.90;;;;;;5078131;28;20191;-68
2024/04/04 01:33:56;;;;;;;0.20;0.20;;;5.80;99.90;;;;;;5072133;28;20193;-67
2024/04/04 01:36:22;;;;;;;0.17;0.17;;;5.80;99.90;;;;;;5071819;28;20191;-68
2024/04/04 01:38:47;;;;;;;0.30;0.30;;;5.80;99.90;;;;;;5072378;28;20188;-68
2024/04/04 01:41:13;;;;;;;0.10;0.10;;;5.80;99.90;;;;;;5071468;28;20209;-68
2024/04/04 01:43:39;;;;;;;0.10;0.10;;;5.80;99.90;;;;;;5072654;28;20212;-67
2024/04/04 01:46:04;;;;;;;0.10;0.10;;;5.80;99.90;;;;;;5073219;28;20194;-67
2024/04/04 01:48:30;;;;;;;0.10;0.10;;;5.90;99.90;;;;;;5071992;28;20347;-68
2024/04/04 01:50:55;;;;;;;0.10;0.10;;;6.00;99.90;;;;;;5071508;28;20243;-67
2024/04/04 01:53:21;;;;;;;0.67;0.57;;;6.10;99.90;;;;;;5070087;28;20271;-67
2024/04/04 01:55:47;;;;;;;0.83;0.50;;;6.00;99.90;;;;;;5071372;28;20229;-67
2024/04/04 01:58:12;;;;;;;0.10;0.10;;;6.10;99.90;;;;;;5079301;28;20297;-67
2024/04/04 02:00:38;;;;;;;0.70;0.60;;;6.10;99.90;;;;;;5070815;28;20194;-66
2024/04/04 02:03:04;;;;;;;0.20;0.20;;;6.10;99.90;;;;;;5070805;28;20209;-65
2024/04/04 02:05:31;;;;;;;0.17;0.17;;;6.10;99.90;;;;;;5071112;28;20186;-66
2024/04/04 02:07:57;;;;;;;0.40;0.20;;;6.10;99.90;;;;;;5070833;28;20194;-67
2024/04/04 02:10:23;;;;;;;0.40;0.40;;;6.10;99.90;;;;;;5070527;28;20194;-66
2024/04/04 02:12:48;;;;;;;0.10;0.10;;;6.20;99.90;;;;;;5071007;28;20194;-66
2024/04/04 02:15:14;;;;;;;0.50;0.50;;;6.10;99.90;;;;;;5070578;28;20712;-66
2024/04/04 02:17:40;;;;;;;0.10;0.10;;;6.10;99.90;;;;;;5070570;28;20280;-66
2024/04/04 02:20:09;;;;;;;0.20;0.20;;;6.10;99.90;;;;;;5070524;28;20190;-66
2024/04/04 02:22:36;;;;;;;0.10;0.10;;;6.20;99.90;;;;;;5077439;28;20213;-66
2024/04/04 02:25:02;;;;;;;0.10;0.10;;;6.20;99.90;;;;;;5072917;28;20262;-66
2024/04/04 02:27:29;;;;;;;2.53;0.50;;;6.20;99.90;;;;;;5071300;28;20588;-66
2024/04/04 02:29:55;;;;;;;0.70;0.70;;;6.30;99.90;;;;;;5070351;28;20182;-66
2024/04/04 02:32:20;;;;;;;0.13;0.13;;;6.30;99.90;;;;;;5070718;28;20667;-66
2024/04/04 02:34:46;;;;;;;0.10;0.10;;;6.30;99.90;;;;;;5070845;28;20188;-66
2024/04/04 02:37:11;;;;;;;0.10;0.10;;;6.40;99.90;;;;;;5069332;28;20268;-66
2024/04/04 02:39:37;;;;;;;0.20;0.20;;;6.40;99.90;;;;;;5068952;28;20248;-66
2024/04/04 02:42:03;;;;;;;0.30;0.30;;;6.40;99.90;;;;;;5070415;28;20202;-66
2024/04/04 02:44:30;;;;;;;0.10;0.10;;;6.40;99.90;;;;;;5070536;28;20783;-66
2024/04/04 02:46:55;;;;;;;0.30;0.23;;;6.40;99.90;;;;;;5069976;28;20264;-66
2024/04/04 02:49:21;;;;;;;0.10;0.10;;;6.40;99.90;;;;;;5069900;28;20194;-66
2024/04/04 02:51:47;;;;;;;0.10;0.10;;;6.40;99.90;;;;;;5070547;28;20214;-66
2024/04/04 02:54:12;;;;;;;0.13;0.13;;;6.50;99.90;;;;;;5070473;28;20182;-66
2024/04/04 02:56:38;;;;;;;0.10;0.10;;;6.50;99.90;;;;;;5070389;28;20186;-66
2024/04/04 02:59:03;;;;;;;0.20;0.20;;;6.60;99.90;;;;;;5069628;28;20658;-66
2024/04/04 03:01:29;;;;;;;0.10;0.10;;;6.60;99.90;;;;;;5070313;28;20266;-66
2024/04/04 03:03:55;;;;;;;0.23;0.23;;;6.60;99.90;;;;;;5069025;28;20214;-66
2024/04/04 03:06:20;;;;;;;0.23;0.23;;;6.70;99.90;;;;;;5068869;28;20174;-66
2024/04/04 03:08:46;;;;;;;0.10;0.10;;;6.70;99.90;;;;;;5070354;28;20190;-66
2024/04/04 03:11:12;;;;;;;0.50;0.20;;;6.70;99.90;;;;;;5069709;28;20665;-66
2024/04/04 03:13:38;;;;;;;0.87;0.60;;;6.80;99.90;;;;;;5070114;28;20193;-66
2024/04/04 03:16:04;;;;;;;0.10;0.10;;;6.80;99.90;;;;;;5078420;28;20182;-66
2024/04/04 03:18:30;;;;;;;0.13;0.13;;;6.90;99.90;;;;;;5069844;28;20586;-66
2024/04/04 03:20:55;;;;;;;0.10;0.10;;;6.90;99.90;;;;;;5069638;28;20193;-66
2024/04/04 03:23:21;;;;;;;0.73;0.73;;;6.90;99.90;;;;;;5070164;28;20213;-66
2024/04/04 03:25:47;;;;;;;0.30;0.30;;;7.00;99.90;;;;;;5068807;28;20194;-66
2024/04/04 03:28:12;;;;;;;0.20;0.20;;;7.00;99.90;;;;;;5069631;28;20294;-66
2024/04/04 03:30:39;;;;;;;0.40;0.23;;;7.00;99.90;;;;;;5069472;28;20174;-66
2024/04/04 03:33:05;;;;;;;0.10;0.10;;;7.00;99.90;;;;;;5069770;28;20571;-67
2024/04/04 03:35:30;;;;;;;0.13;0.13;;;7.00;99.90;;;;;;5069835;28;20182;-67
2024/04/04 03:37:56;;;;;;;0.47;0.40;;;7.00;99.90;;;;;;5069268;28;20265;-67
2024/04/04 03:40:22;;;;;;;0.10;0.10;;;7.10;99.90;;;;;;5069136;28;20261;-67
2024/04/04 03:42:47;;;;;;;0.17;0.17;;;7.10;99.90;;;;;;5069219;28;20244;-68
2024/04/04 03:45:13;;;;;;;0.23;0.17;;;7.10;99.90;;;;;;5069371;28;20213;-68
2024/04/04 03:47:38;;;;;;;0.10;0.10;;;7.20;99.90;;;;;;5077379;28;20685;-67
2024/04/04 03:50:05;;;;;;;0.67;0.57;;;7.20;99.90;;;;;;5077216;28;20239;-68
2024/04/04 03:52:30;;;;;;;0.27;0.20;;;7.20;99.90;;;;;;5069385;28;20684;-66
2024/04/04 03:54:57;;;;;;;0.30;0.30;;;7.30;99.90;;;;;;5069253;28;20214;-69
2024/04/04 03:57:23;;;;;;;0.10;0.10;;;7.30;99.90;;;;;;5069027;28;20297;-68
2024/04/04 03:59:48;;;;;;;0.10;0.10;;;7.40;99.90;;;;;;5072212;28;20289;-67
2024/04/04 04:02:14;;;;;;;0.20;0.20;;;7.40;99.90;;;;;;5073149;28;20218;-68
2024/04/04 04:04:40;;;;;;;0.20;0.20;;;7.30;99.90;;;;;;5073432;28;20194;-68
2024/04/04 04:07:05;;;;;;;0.10;0.10;;;7.40;99.90;;;;;;5072787;28;20246;-66
2024/04/04 04:09:31;;;;;;;0.20;0.20;;;7.40;99.90;;;;;;5072998;28;20580;-67
2024/04/04 04:11:57;;;;;;;0.20;0.20;;;7.50;99.90;;;;;;5081534;28;20219;-67
2024/04/04 04:14:22;;;;;;;0.10;0.10;;;7.50;99.90;;;;;;5073250;28;20251;-67
2024/04/04 04:16:48;;;;;;;0.20;0.20;;;7.60;99.90;;;;;;5072940;28;20702;-66
2024/04/04 04:19:14;;;;;;;0.30;0.20;;;7.60;99.90;;;;;;5072534;28;20741;-66
2024/04/04 04:21:39;;;;;;;0.70;0.70;;;7.60;99.90;;;;;;5071760;28;20183;-67
2024/04/04 04:24:06;;;;;;;0.10;0.10;;;7.60;99.90;;;;;;5073574;28;20289;-68
2024/04/04 04:26:32;;;;;;;0.23;0.23;;;7.60;99.90;;;;;;5074933;28;20174;-67
2024/04/04 04:28:58;;;;;;;0.10;0.10;;;7.70;99.90;;;;;;5075236;28;20175;-67
2024/04/04 04:31:27;;;;;;;0.13;0.13;;;7.70;99.90;;;;;;5083334;28;20193;-67
2024/04/04 04:33:54;;;;;;;0.40;0.40;;;7.80;99.90;;;;;;5075585;28;20194;-66
2024/04/04 04:36:22;;;;;;;0.10;0.10;;;7.80;99.90;;;;;;5075604;28;20194;-67
2024/04/04 04:38:48;;;;;;;0.43;0.40;;;7.80;99.90;;;;;;5083212;28;20540;-68
2024/04/04 04:41:13;;;;;;;0.20;0.20;;;7.90;99.90;;;;;;5074381;28;20658;-68
2024/04/04 04:43:42;;;;;;;0.17;0.17;;;7.90;99.90;;;;;;5075218;28;20221;-68
2024/04/04 04:46:08;;;;;;;0.10;0.10;;;8.00;99.90;;;;;;5074744;28;20269;-68
2024/04/04 04:48:34;;;;;;;0.10;0.10;;;8.00;99.90;;;;;;5073570;28;20210;-68
2024/04/04 04:51:00;;;;;;;0.10;0.10;;;8.00;99.90;;;;;;5072585;28;20190;-69
2024/04/04 04:53:25;;;;;;;0.20;0.20;;;8.00;99.90;;;;;;5074974;28;20193;-68
2024/04/04 04:55:51;;;;;;;0.20;0.20;;;8.00;99.90;;;;;;5074525;28;20187;-68
2024/04/04 04:58:19;;;;;;;2.40;2.13;;;8.00;99.90;;;;;;5075552;28;20198;-68
2024/04/04 05:00:45;;;;;;;0.30;0.30;;;8.10;99.90;;;;;;5074890;28;20191;-68
2024/04/04 05:03:10;;;;;;;0.20;0.20;;;8.10;99.90;;;;;;5075373;28;20209;-68
2024/04/04 05:05:36;;;;;;;0.70;0.60;;;8.10;99.90;;;;;;5073815;28;20174;-68
2024/04/04 05:08:02;;;;;;;0.27;0.20;;;8.20;99.90;;;;;;5073170;28;20752;-67
2024/04/04 05:10:29;;;;;;;0.20;0.20;;;8.20;99.90;;;;;;5073535;28;20269;-67
2024/04/04 05:12:55;;;;;;;0.10;0.10;;;8.20;99.90;;;;;;5074517;28;20193;-67
2024/04/04 05:15:21;;;;;;;0.53;0.40;;;8.30;99.90;;;;;;5074309;28;20471;-67
2024/04/04 05:17:46;;;;;;;0.23;0.23;;;8.30;99.90;;;;;;5073570;28;20206;-67
2024/04/04 05:20:13;;;;;;;1.97;0.83;;;8.30;99.90;;;;;;5072273;28;20221;-67
2024/04/04 05:22:40;;;;;;;0.40;0.40;;;8.30;99.90;;;;;;5071650;28;20383;-67
2024/04/04 05:25:06;;;;;;;0.33;0.33;;;8.40;99.90;;;;;;5071712;28;20174;-67
2024/04/04 05:27:32;;;;;;;0.23;0.23;;;8.50;99.90;;;;;;5071881;28;20206;-67
2024/04/04 05:30:05;;;;;;;0.40;0.30;;;8.50;99.90;;;;;;5071364;28;20645;-67
2024/04/04 05:32:31;;;;;;;0.33;0.30;;;8.60;99.90;;;;;;5072031;28;20181;-67
2024/04/04 05:34:57;;;;;;;0.10;0.10;;;8.60;99.90;;;;;;5071889;28;20285;-67
2024/04/04 05:37:22;;;;;;;0.40;0.40;;;8.70;99.90;;;;;;5072177;28;20214;-68
2024/04/04 05:39:48;;;;;;;0.20;0.20;;;8.80;99.90;;;;;;5071788;28;20210;-68
2024/04/04 05:42:13;;;;;;;0.83;0.60;;;8.80;99.90;;;;;;5072790;28;20287;-67
2024/04/04 05:44:39;;;;;;;1.33;1.10;;;8.90;99.90;;;;;;5072568;28;20183;-67
2024/04/04 05:47:04;;;;;;;0.17;0.17;;;8.90;99.90;;;;;;5071176;28;20210;-67
2024/04/04 05:49:30;;;;;;;0.70;0.50;;;8.90;99.90;;;;;;5070718;28;20181;-67
2024/04/04 05:51:57;;;;;;;0.40;0.40;;;9.00;99.90;;;;;;5071644;28;20175;-68
2024/04/04 05:54:22;;;;;;;0.23;0.23;;;9.10;99.90;;;;;;5071850;28;20270;-68
2024/04/04 05:56:48;;;;;;;0.30;0.30;;;9.20;99.90;;;;;;5071687;28;20245;-68
2024/04/04 05:59:14;;;;;;;0.30;0.30;;;9.20;99.90;;;;;;5071662;28;20194;-68
2024/04/04 06:01:39;;;;;;;0.30;0.30;;;9.20;99.90;;;;;;5071994;28;20227;-68
2024/04/04 06:04:05;;;;;;;0.57;0.40;;;9.30;99.90;;;;;;5072681;28;20217;-68
2024/04/04 06:06:31;;;;;;;0.40;0.30;;;9.30;99.90;;;;;;5071733;28;20185;-68
2024/04/04 06:08:57;;;;;;;0.20;0.20;;;9.30;99.90;;;;;;5072502;28;20221;-68
2024/04/04 06:11:23;;;;;;;0.57;0.40;;;9.40;99.90;;;;;;5073692;28;20460;-68
2024/04/04 06:13:49;;;;;;;0.20;0.20;;;9.50;99.90;;;;;;5073236;28;20197;-68
2024/04/04 06:16:14;;;;;;;0.30;0.30;;;9.50;99.90;;;;;;5072610;28;20650;-68
2024/04/04 06:18:40;;;;;;;0.37;0.37;;;9.60;99.90;;;;;;5072289;28;20238;-68
2024/04/04 06:21:05;;;;;;;0.30;0.27;;;9.70;99.90;;;;;;5071148;28;20182;-68
2024/04/04 06:23:31;;;;;;;0.27;0.20;;;9.70;99.90;;;;;;5070016;28;20218;-69
2024/04/04 06:25:57;;;;;;;0.23;0.23;;;9.70;99.90;;;;;;5070625;28;20308;-69
2024/04/04 06:28:23;;;;;;;0.60;0.23;;;9.80;99.90;;;;;;5070785;28;20682;-68
2024/04/04 06:30:48;;;;;;;0.67;0.50;;;9.70;99.90;;;;;;5070738;28;20244;-69
2024/04/04 06:33:14;;;;;;;0.30;0.30;;;9.70;99.90;;;;;;5071613;28;20571;-69
2024/04/04 06:35:39;;;;;;;0.10;0.10;;;9.80;99.90;;;;;;5071441;28;20524;-68
2024/04/04 06:38:05;;;;;;;0.47;0.40;;;9.80;99.90;;;;;;5069647;28;20221;-67
2024/04/04 06:40:32;;;;;;;0.40;0.20;;;10.00;99.90;;;;;;5069357;28;20717;-68
2024/04/04 06:42:58;;;;;;;1.13;0.83;;;10.00;99.90;;;;;;5069437;28;20218;-68
2024/04/04 06:45:24;;;;;;;0.40;0.37;;;10.00;99.90;;;;;;5069873;28;20207;-67
2024/04/04 06:48:00;;;;;;;0.40;0.40;;;10.10;99.90;;;;;;5069503;28;20206;-67
2024/04/04 06:50:27;;;;;;;0.10;0.10;;;10.20;99.90;;;;;;5069291;28;20200;-67
2024/04/04 06:52:53;;;;;;;0.20;0.20;;;10.20;99.90;;;;;;5069655;28;20331;-67
2024/04/04 06:55:19;;;;;;;1.43;0.63;;;10.20;99.90;;;;;;5061455;28;20261;-68
2024/04/04 06:57:45;;;;;;;1.83;0.50;;;10.20;99.90;;;;;;5069600;28;20293;-67
2024/04/04 07:00:11;;;;;;;0.43;0.43;;;10.20;99.90;;;;;;5077454;28;20178;-67
2024/04/04 07:02:41;;;;;;;0.20;0.20;;;10.20;99.90;;;;;;5069294;28;20261;-67
2024/04/04 07:05:08;;;;;;;1.80;1.00;;;10.20;99.90;;;;;;5069231;28;20261;-67
2024/04/04 07:07:34;;;;;;;0.57;0.57;;;10.20;99.90;;;;;;5069088;28;20221;-67
2024/04/04 07:10:01;;;;;;;0.20;0.10;;;10.30;99.90;;;;;;5068808;28;20210;-67
2024/04/04 07:12:27;;;;;;;0.67;0.23;;;10.30;99.90;;;;;;5069554;28;21067;-67
2024/04/04 07:14:52;;;;;;;1.40;1.10;;;10.30;99.90;;;;;;5069288;28;20300;-67
2024/04/04 07:17:18;;;;;;;0.53;0.30;;;10.30;99.90;;;;;;5068679;28;20206;-67
2024/04/04 07:19:43;;;;;;;0.33;0.33;;;10.40;99.90;;;;;;5069004;28;20213;-67
2024/04/04 07:22:09;;;;;;;0.30;0.30;;;10.40;99.90;;;;;;5068904;28;20190;-67
2024/04/04 07:24:35;;;;;;;0.30;0.30;;;10.40;99.90;;;;;;5069109;28;20662;-68
2024/04/04 07:27:00;;;;;;;0.80;0.40;;;10.50;99.90;;;;;;5068870;28;20210;-67
2024/04/04 07:29:26;;;;;;;0.40;0.40;;;10.50;99.90;;;;;;5067171;28;20267;-68
2024/04/04 07:31:51;;;;;;;1.30;0.67;;;10.50;99.90;;;;;;5068679;28;20685;-67
2024/04/04 07:34:17;;;;;;;0.50;0.50;;;10.60;99.90;;;;;;5067592;28;20201;-67
2024/04/04 07:36:42;;;;;;;0.33;0.33;;;10.60;99.90;;;;;;5069348;28;20205;-67
2024/04/04 07:39:09;;;;;;;0.30;0.30;;;10.70;99.90;;;;;;5068469;28;20559;-67
2024/04/04 07:41:35;;;;;;;1.30;1.03;;;10.70;99.90;;;;;;5067375;28;20293;-67
2024/04/04 07:44:02;;;;;;;1.93;1.23;;;10.70;99.90;;;;;;5068824;28;20226;-68
2024/04/04 07:46:28;;;;;;;0.70;0.60;;;10.70;99.90;;;;;;5068578;28;20710;-68
2024/04/04 07:48:54;;;;;;;0.57;0.30;;;10.80;99.90;;;;;;5068258;28;20189;-67
2024/04/04 07:51:21;;;;;;;0.20;0.20;;;10.80;99.90;;;;;;5060942;28;20590;-67
2024/04/04 07:53:48;;;;;;;0.40;0.30;;;10.90;99.90;;;;;;5068713;28;20273;-67
2024/04/04 07:56:16;;;;;;;0.37;0.30;;;10.90;99.90;;;;;;5068762;28;20189;-68
2024/04/04 07:58:43;;;;;;;0.20;0.20;;;11.00;99.90;;;;;;5068775;28;20210;-67
2024/04/04 08:01:09;;;;;;;1.23;0.63;;;11.00;99.90;;;;;;5068260;28;20269;-67
2024/04/04 08:03:35;;;;;;;0.20;0.20;;;11.10;99.90;;;;;;5076871;28;20305;-67
2024/04/04 08:06:02;;;;;;;0.13;0.13;;;11.20;99.90;;;;;;5067135;28;20584;-67
2024/04/04 08:08:28;;;;;;;2.03;0.60;;;11.20;99.90;;;;;;5068539;28;20220;-67
2024/04/04 08:10:54;;;;;;;0.20;0.20;;;11.20;99.90;;;;;;5068514;28;20202;-68
2024/04/04 08:13:19;;;;;;;0.50;0.50;;;11.30;99.90;;;;;;5068895;28;20749;-67
2024/04/04 08:15:49;;;;;;;1.50;0.30;;;11.40;99.90;;;;;;5068552;28;20207;-68
2024/04/04 08:18:14;;;;;;;0.53;0.23;;;11.40;99.90;;;;;;5068319;28;20202;-67
2024/04/04 08:20:44;;;;;;;0.30;0.30;;;11.50;99.90;;;;;;5068073;28;20559;-67
2024/04/04 08:23:10;;;;;;;0.27;0.27;;;11.50;99.90;;;;;;5067149;28;20222;-67
2024/04/04 08:25:36;;;;;;;0.20;0.20;;;11.70;99.90;;;;;;5067233;28;20266;-67
2024/04/04 08:28:04;;;;;;;0.13;0.13;;;11.70;99.90;;;;;;5068220;28;20821;-66
2024/04/04 08:30:31;;;;;;;0.20;0.20;;;11.80;99.90;;;;;;5068023;28;20174;-68
2024/04/04 08:32:56;;;;;;;0.30;0.20;;;11.80;99.90;;;;;;5068385;28;20731;-67
2024/04/04 08:35:22;;;;;;;0.30;0.30;;;11.80;99.90;;;;;;5068583;28;20187;-65
2024/04/04 08:37:48;;;;;;;0.50;0.17;;;11.80;99.90;;;;;;5068270;28;20550;-66
2024/04/04 08:40:14;;;;;;;0.20;0.20;;;11.80;99.90;;;;;;5078787;28;20672;-65
2024/04/04 08:42:41;;;;;;;0.20;0.20;;;11.90;99.90;;;;;;5073870;28;20217;-66
2024/04/04 08:45:09;;;;;;;0.17;0.17;;;11.90;99.90;;;;;;5068388;28;20183;-65
2024/04/04 08:47:36;;;;;;;0.33;0.33;;;12.00;99.90;;;;;;5071899;28;20203;-66
2024/04/04 08:50:03;;;;;;;0.30;0.30;;;12.00;99.90;;;;;;5071473;28;20198;-66
2024/04/04 08:52:30;;;;;;;0.20;0.20;;;11.90;99.90;;;;;;5071879;28;20279;-67
2024/04/04 08:54:56;;;;;;;0.30;0.27;;;11.90;99.90;;;;;;5071707;28;20262;-67
2024/04/04 08:57:23;;;;;;;0.10;0.10;;;11.90;99.90;;;;;;5072447;28;20281;-69
2024/04/04 08:59:59;;;;;;;0.30;0.30;;;11.90;99.90;;;;;;5072299;28;20185;-68
2024/04/04 09:02:26;;;;;;;0.20;0.20;;;11.90;99.90;;;;;;5072519;28;20326;-68
2024/04/04 09:05:06;;;;;;;0.10;0.10;;;12.00;99.90;;;;;;5072253;28;20660;-68
2024/04/04 09:07:37;;;;;;;0.73;0.30;;;12.00;99.90;;;;;;5064526;28;20202;-68
2024/04/04 09:10:03;;;;;;;0.60;0.40;;;11.90;99.90;;;;;;5071157;28;20214;-68
2024/04/04 09:12:29;;;;;;;0.27;0.23;;;12.00;99.90;;;;;;5071570;28;20191;-68
2024/04/04 09:14:59;;;;;;;0.20;0.20;;;12.00;99.90;;;;;;5071861;28;20210;-68
2024/04/04 09:17:26;;;;;;;0.13;0.13;;;12.10;99.90;;;;;;5070067;28;20225;-68
2024/04/04 09:19:55;;;;;;;0.20;0.20;;;12.20;99.90;;;;;;5071156;28;20218;-67
2024/04/04 09:22:22;;;;;;;0.57;0.50;;;12.20;99.90;;;;;;5072157;28;20193;-67
2024/04/04 09:24:48;;;;;;;0.17;0.17;;;12.20;99.90;;;;;;5071333;28;20669;-67
2024/04/04 09:27:19;;;;;;;0.20;0.20;;;12.20;99.90;;;;;;5072640;28;20194;-66
2024/04/04 09:29:51;;;;;;;0.10;0.10;;;12.30;99.90;;;;;;5072091;28;20192;-67
2024/04/04 09:32:19;;;;;;;0.27;0.17;;;12.30;99.90;;;;;;5072187;28;20170;-66
2024/04/04 09:34:45;;;;;;;0.10;0.10;;;12.40;99.90;;;;;;5072138;28;20178;-68
2024/04/04 09:37:14;;;;;;;0.10;0.10;;;12.50;99.90;;;;;;5071553;28;20203;-67
2024/04/04 09:39:43;;;;;;;0.10;0.10;;;12.60;99.90;;;;;;5071866;28;20182;-66
2024/04/04 09:42:09;;;;;;;0.20;0.20;;;12.60;99.90;;;;;;5071903;28;20194;-67
2024/04/04 09:44:36;;;;;;;0.10;0.10;;;12.70;99.90;;;;;;5072018;28;20888;-66
2024/04/04 09:47:06;;;;;;;0.17;0.17;;;12.70;99.90;;;;;;5071620;28;20216;-66
2024/04/04 09:49:32;;;;;;;0.10;0.10;;;12.80;99.90;;;;;;5071819;28;20225;-67
2024/04/04 09:52:02;;;;;;;0.13;0.10;;;12.90;99.90;;;;;;5072516;28;20600;-66
2024/04/04 09:54:29;;;;;;;0.10;0.10;;;13.00;99.90;;;;;;5071715;28;20212;-66
2024/04/04 09:56:55;;;;;;;0.20;0.20;;;13.00;99.90;;;;;;5071477;28;20275;-68
2024/04/04 09:59:28;;;;;;;0.10;0.10;;;13.10;99.90;;;;;;5079109;28;20221;-67
2024/04/04 10:02:01;;;;;;;0.10;0.10;;;13.30;99.90;;;;;;5071818;28;20229;-68
2024/04/04 10:04:35;;;;;;;0.10;0.10;;;13.50;99.90;;;;;;5071734;28;20217;-67
2024/04/04 10:07:01;;;;;;;0.10;0.10;;;13.70;99.90;;;;;;5071659;28;20521;-67
2024/04/04 10:09:36;;;;;;;0.10;0.10;;;14.00;99.90;;;;;;5071766;28;20198;-67
2024/04/04 10:12:14;;;;;;;0.27;0.27;;;14.10;99.90;;;;;;5071971;28;20613;-67
2024/04/04 10:14:53;;;;;;;0.10;0.10;;;14.30;99.90;;;;;;5071732;28;20186;-67
2024/04/04 10:17:20;;;;;;;0.20;0.20;;;14.60;99.90;;;;;;5071851;28;20213;-68
2024/04/04 10:19:46;;;;;;;0.10;0.10;;;14.90;99.90;;;;;;5071552;28;20243;-67
2024/04/04 10:22:18;;;;;;;0.07;0.07;;;15.20;99.90;;;;;;5080270;28;20276;-68
2024/04/04 10:24:43;;;;;;;0.20;0.20;;;15.30;99.90;;;;;;5072468;28;20202;-67
2024/04/04 10:27:12;;;;;;;0.10;0.10;;;15.40;99.90;;;;;;5081910;28;20245;-67
2024/04/04 10:29:41;;;;;;;0.00;0.00;;;15.30;99.90;;;;;;5083220;28;20231;-68
2024/04/04 10:32:08;;;;;;;0.10;0.10;;;15.30;99.90;;;;;;5075602;28;20184;-68
2024/04/04 10:34:34;;;;;;;0.07;0.07;;;15.50;99.90;;;;;;5084822;28;20191;-67
2024/04/04 10:37:00;;;;;;;0.10;0.10;;;15.30;99.90;;;;;;5079791;28;20197;-67
2024/04/04 10:39:26;;;;;;;0.10;0.10;;;15.20;99.90;;;;;;5070541;28;20195;-67
2024/04/04 10:41:54;;;;;;;0.10;0.10;;;15.20;99.90;;;;;;5071140;28;20206;-68
2024/04/04 10:44:21;;;;;;;0.10;0.10;;;15.40;99.90;;;;;;5071315;28;20228;-67
2024/04/04 10:46:52;;;;;;;0.10;0.10;;;15.40;99.90;;;;;;5078652;28;20247;-67
2024/04/04 10:49:27;;;;;;;0.10;0.10;;;15.20;99.90;;;;;;5070293;28;20191;-67
2024/04/04 10:51:59;;;;;;;0.10;0.10;;;15.10;99.90;;;;;;5069416;28;20235;-67
2024/04/04 10:54:25;;;;;;;0.00;0.00;;;14.90;99.90;;;;;;5069376;28;20186;-68
2024/04/04 10:56:51;;;;;;;0.73;0.40;;;15.00;99.90;;;;;;5077214;28;20209;-67
2024/04/04 10:59:18;;;;;;;0.30;0.20;;;15.00;99.90;;;;;;5069609;28;20305;-67
2024/04/04 11:01:51;;;;;;;0.10;0.10;;;15.20;99.90;;;;;;5069633;28;20202;-67
2024/04/04 11:04:18;;;;;;;0.10;0.10;;;15.20;99.90;;;;;;5069004;28;20229;-67
2024/04/04 11:06:45;;;;;;;0.10;0.10;;;15.30;99.90;;;;;;5069205;28;20305;-66
2024/04/04 11:09:15;;;;;;;0.10;0.10;;;15.40;99.90;;;;;;5068359;28;20194;-67
2024/04/04 11:11:45;;;;;;;0.87;0.50;;;15.40;99.90;;;;;;5069648;28;20209;-67
2024/04/04 11:14:13;;;;;;;0.10;0.10;;;15.50;99.90;;;;;;5069112;28;20194;-67
2024/04/04 11:16:40;;;;;;;0.10;0.10;;;15.70;99.90;;;;;;5069558;28;20634;-67
2024/04/04 11:19:06;;;;;;;0.00;0.00;;;15.60;99.90;;;;;;5068281;28;20190;-67
2024/04/04 11:21:32;;;;;;;0.10;0.10;;;15.40;99.90;;;;;;5069294;28;20202;-67
2024/04/04 11:23:58;;;;;;;0.13;0.10;;;15.30;99.90;;;;;;5067584;28;20222;-67
2024/04/04 11:26:24;;;;;;;0.10;0.10;;;15.20;99.90;;;;;;5069188;28;20186;-65
2024/04/04 11:28:50;;;;;;;0.00;0.00;;;15.20;99.90;;;;;;5069170;28;20182;-67
2024/04/04 11:31:16;;;;;;;0.10;0.10;;;15.20;99.90;;;;;;5068557;28;20213;-67
2024/04/04 11:33:42;;;;;;;0.10;0.10;;;15.10;99.90;;;;;;5069300;28;20190;-66
2024/04/04 11:36:08;;;;;;;0.10;0.10;;;15.10;99.90;;;;;;5067360;28;20677;-68
2024/04/04 11:38:34;;;;;;;0.47;0.47;;;15.00;99.90;;;;;;5077280;28;20218;-67
2024/04/04 11:41:00;;;;;;;0.10;0.10;;;15.00;99.90;;;;;;5068494;28;20251;-67
2024/04/04 11:43:25;;;;;;;0.10;0.10;;;14.80;99.90;;;;;;5068668;28;20268;-67
2024/04/04 11:45:51;;;;;;;0.30;0.20;;;14.50;99.90;;;;;;5069056;28;20182;-67
2024/04/04 11:48:17;;;;;;;0.10;0.10;;;14.30;99.90;;;;;;5068503;28;20214;-67
2024/04/04 11:50:44;;;;;;;0.00;0.00;;;14.30;99.90;;;;;;5068743;28;20186;-67
2024/04/04 11:53:11;;;;;;;0.20;0.10;;;14.20;99.90;;;;;;5070866;28;20273;-67
2024/04/04 11:55:38;;;;;;;0.10;0.10;;;14.10;99.90;;;;;;5075150;28;20186;-66
2024/04/04 11:58:04;;;;;;;0.10;0.10;;;14.00;99.90;;;;;;5068528;28;20206;-66
2024/04/04 12:00:29;;;;;;;1.80;0.47;;;14.00;99.90;;;;;;5068420;28;20196;-66
2024/04/04 12:02:57;;;;;;;0.10;0.10;;;13.90;99.90;;;;;;5068392;28;20763;-66
2024/04/04 12:05:22;;;;;;;0.10;0.10;;;13.90;99.90;;;;;;5060327;28;20186;-66
2024/04/04 12:07:48;;;;;;;1.07;0.63;;;14.00;99.90;;;;;;5068593;28;20670;-65
2024/04/04 12:10:14;;;;;;;0.87;0.60;;;14.10;99.90;;;;;;5068365;28;20221;-65
2024/04/04 12:12:41;;;;;;;0.10;0.10;;;14.20;99.90;;;;;;5068895;28;20202;-67
2024/04/04 12:15:08;;;;;;;0.17;0.17;;;14.30;99.90;;;;;;5068254;28;20301;-68
2024/04/04 12:17:38;;;;;;;0.00;0.00;;;14.30;99.90;;;;;;5068144;28;20206;-67
2024/04/04 12:20:09;;;;;;;0.40;0.30;;;14.20;99.90;;;;;;5068880;28;20632;-67
2024/04/04 12:22:36;;;;;;;0.63;0.20;;;14.20;99.90;;;;;;5072421;28;20296;-68
2024/04/04 12:25:02;;;;;;;0.30;0.20;;;14.30;99.90;;;;;;5072440;28;20175;-65
2024/04/04 12:27:28;;;;;;;0.10;0.10;;;14.40;99.90;;;;;;5072477;28;20209;-66
2024/04/04 12:29:53;;;;;;;0.10;0.10;;;14.50;99.90;;;;;;5071909;28;20183;-67
2024/04/04 12:32:19;;;;;;;0.03;0.03;;;14.70;99.90;;;;;;5072207;28;20205;-68
2024/04/04 12:34:45;;;;;;;0.30;0.20;;;14.70;99.90;;;;;;5072335;28;20500;-67
2024/04/04 12:37:10;;;;;;;0.33;0.33;;;14.60;99.90;;;;;;5072014;28;20840;-66
2024/04/04 12:39:37;;;;;;;0.20;0.20;;;14.40;99.90;;;;;;5071772;28;20460;-65
2024/04/04 12:42:03;;;;;;;0.67;0.23;;;14.40;99.90;;;;;;5080681;28;20194;-67
2024/04/04 12:44:29;;;;;;;0.13;0.13;;;14.40;99.90;;;;;;5079385;28;20324;-68
2024/04/04 12:46:55;;;;;;;0.30;0.20;;;14.40;99.90;;;;;;5071675;28;20210;-66
2024/04/04 12:49:20;;;;;;;0.10;0.10;;;14.40;99.90;;;;;;5071092;28;20201;-66